Time;durP1;ratioP1;P1;durP2;ratioP2;P2;SDS_P1;SDS_P2;PMS_P1;PMS_P2;Temp;Humidity;BMP_temperature;BMP_pressure;BME280_temperature;BME280_humidity;BME280_pressure;Samples;Min_cycle;Max_cycle;Signal;HPM_P1;HPM_P2
2022/05/21 07:45:55;;;;;;;;;;;;;;;18.42;49.65;100522.63;1086442;54;19950;-79
2022/05/21 07:46:59;;;;;;;;;;;;;;;18.28;49.05;100525.09;1087602;54;19957;-79
2022/05/21 07:48:03;;;;;;;;;;;;;;;18.48;49.05;100522.72;1087385;39;20686;-79
2022/05/21 07:49:04;;;;;;;;;;;;;;;18.78;48.18;100520.03;1088166;54;20590;-79
2022/05/21 07:50:10;;;;;;;;;;;;;;;18.63;47.70;100513.75;1088294;54;19942;-81
2022/05/21 07:51:12;;;;;;;;;;;;;;;18.44;48.70;100526.81;1088354;54;19941;-77
2022/05/21 07:52:15;;;;;;;;;;;;;;;18.29;48.91;100520.53;1088396;54;20054;-77
2022/05/21 07:53:18;;;;;;;;;;;;;;;18.33;49.27;100513.72;1088456;54;19939;-77
2022/05/21 07:54:21;;;;;;;;;;;;;;;18.33;49.44;100513.72;1088110;54;19951;-76
2022/05/21 07:55:23;;;;;;;;;;;;;;;18.52;49.60;100510.47;1088450;54;19934;-85
2022/05/21 07:56:29;;;;;;;;;;;;;;;18.36;50.14;100506.09;1088653;54;19943;-82
2022/05/21 07:57:33;;;;;;;;;;;;;;;18.17;50.81;100512.88;1088599;54;19926;-85
2022/05/21 08:11:13;;;;;;;;;;;;;;;19.13;48.80;100517.59;1078962;54;20005;31
2022/05/21 08:12:18;;;;;;;;;;;;;;;19.50;48.58;100514.88;1077750;39;20846;31
2022/05/21 08:13:31;;;;;;;;;;;;;;;19.23;48.62;100514.56;1076900;54;19950;31
2022/05/21 08:14:33;;;;;;;;;;;;;;;19.12;49.60;100524.03;1081048;54;21115;31
2022/05/21 08:17:49;;;;;;;;;;;;;;;18.91;49.59;100532.91;1088550;54;19938;-84
2022/05/21 08:19:57;;;;;;;;;;;;;;;18.97;48.90;100531.34;1088709;54;19927;-83
2022/05/21 08:27:54;;;;;;;;;;;;;;;19.55;47.09;100538.72;1088642;54;19937;-84
2022/05/21 08:28:57;;;;;;;;;;;;;;;19.51;47.08;100526.56;1088888;39;19975;-85
2022/05/21 08:30:01;;;;;;;;;;;;;;;19.83;46.61;100529.81;1090394;46;19973;-84
2022/05/21 08:34:20;;;;;;;;;;;;;;;19.88;46.59;100522.81;1088050;54;19939;-84
2022/05/21 08:36:28;;;;;;;;;;;;;;;19.66;46.96;100534.63;1078605;46;20044;31
2022/05/21 08:37:41;;;;;;;;;;;;;;;19.74;46.80;100538.06;1081671;54;19949;-83
2022/05/21 08:39:53;;;;;;;;;;;;;;;19.62;47.17;100523.34;1088546;54;19942;-85
2022/05/21 08:40:58;;;;;;;;;;;;;;;19.65;46.65;100522.94;1088575;54;19942;-82
2022/05/21 08:45:23;;;;;;;;;;;;;;;20.24;46.38;100530.00;1088471;54;19942;-84
2022/05/21 08:47:36;;;;;;;;;;;;;;;20.42;46.08;100524.03;1088489;54;19935;-83
2022/05/21 08:48:55;;;;;;;;;;;;;;;20.38;46.02;100516.50;1088510;54;19935;-83
2022/05/21 08:50:11;;;;;;;;;;;;;;;20.47;46.25;100519.91;1088533;54;20083;-84
2022/05/21 08:51:17;;;;;;;;;;;;;;;20.73;45.06;100520.09;1088440;54;19967;-84
2022/05/21 08:52:25;;;;;;;;;;;;;;;20.38;45.68;100516.50;1088558;54;19939;-82
2022/05/21 08:57:45;;;;;;;;;;;;;;;19.94;45.12;100510.31;1088160;54;19961;-83
2022/05/21 08:58:48;;;;;;;;;;;;;;;20.35;44.79;100515.03;1088127;54;19949;-84
2022/05/21 08:59:56;;;;;;;;;;;;;;;20.82;44.41;100511.78;1088275;54;19950;-82
2022/05/21 09:01:00;;;;;;;;;;;;;;;21.15;43.42;100508.38;1088157;54;20575;-83
2022/05/21 09:02:03;;;;;;;;;;;;;;;21.21;43.07;100507.56;1088216;54;21026;-85
2022/05/21 09:03:05;;;;;;;;;;;;;;;21.31;42.93;100504.44;1088185;54;19942;-82
2022/05/21 09:04:12;;;;;;;;;;;;;;;20.80;43.68;100509.28;1088439;54;19938;-82
2022/05/21 09:05:17;;;;;;;;;;;;;;;20.90;43.81;100502.63;1094644;39;20428;-84
2022/05/21 09:06:28;;;;;;;;;;;;;;;20.81;43.72;100510.09;1088556;54;20750;-82
2022/05/21 09:09:48;;;;;;;;;;;;;;;20.80;43.35;100520.16;1088604;54;19961;-85
2022/05/21 09:10:56;;;;;;;;;;;;;;;20.98;43.16;100508.72;1095665;39;20562;-84
2022/05/21 09:13:09;;;;;;;;;;;;;;;21.20;42.99;100511.31;1080814;54;19942;31
2022/05/21 09:23:53;;;;;;;;;;;;;;;20.67;44.55;100510.00;1088572;54;19927;-85
2022/05/21 09:24:58;;;;;;;;;;;;;;;20.68;43.41;100505.41;1088317;54;19942;-83
2022/05/21 09:28:08;;;;;;;;;;;;;;;20.76;43.23;100493.59;1088395;54;19927;-84
2022/05/21 09:29:16;;;;;;;;;;;;;;;20.83;42.91;100492.56;1088346;54;19934;-82
2022/05/21 09:30:24;;;;;;;;;;;;;;;21.01;41.94;100489.31;1088151;54;19943;-82
2022/05/21 09:32:34;;;;;;;;;;;;;;;21.63;41.26;100492.00;1088255;54;19934;-84
2022/05/21 09:33:40;;;;;;;;;;;;;;;21.83;40.79;100480.28;1088529;54;19934;-83
2022/05/21 09:34:41;;;;;;;;;;;;;;;21.84;40.59;100479.25;1088668;54;20598;-85
2022/05/21 09:35:52;;;;;;;;;;;;;;;21.66;41.16;100486.16;1092957;46;19957;-86
2022/05/21 09:38:13;;;;;;;;;;;;;;;20.89;42.46;100485.47;1095807;46;19990;-83
2022/05/21 09:39:33;;;;;;;;;;;;;;;21.38;41.92;100474.56;1088554;54;19943;-84
2022/05/21 09:40:37;;;;;;;;;;;;;;;21.11;42.59;100482.63;1088658;54;19923;-82
2022/05/21 09:41:43;;;;;;;;;;;;;;;20.71;43.97;100484.13;1088571;54;20724;-83
2022/05/21 09:45:32;;;;;;;;;;;;;;;20.51;44.33;100494.00;1088283;54;20968;-81
2022/05/21 09:46:35;;;;;;;;;;;;;;;20.85;44.06;100485.03;1088251;54;19990;-82
2022/05/21 09:47:39;;;;;;;;;;;;;;;20.93;43.28;100483.19;1088372;54;19945;-81
2022/05/21 09:48:44;;;;;;;;;;;;;;;21.10;42.91;100489.97;1088363;54;19930;-79
2022/05/21 09:49:58;;;;;;;;;;;;;;;21.45;42.26;100473.53;1088353;54;19939;-82
2022/05/21 09:51:02;;;;;;;;;;;;;;;21.53;41.40;100475.22;1088289;54;20708;-81
2022/05/21 09:52:04;;;;;;;;;;;;;;;21.51;41.25;100471.88;1087967;54;19943;-81
2022/05/21 09:53:21;;;;;;;;;;;;;;;21.46;41.16;100472.50;1088063;54;19954;-81
2022/05/21 09:54:26;;;;;;;;;;;;;;;21.38;41.31;100474.56;1088353;54;20649;-80
2022/05/21 09:55:28;;;;;;;;;;;;;;;21.37;42.00;100475.59;1088332;54;19942;-82
2022/05/21 09:56:35;;;;;;;;;;;;;;;21.14;41.87;100477.63;1088340;54;19939;-80
2022/05/21 09:57:37;;;;;;;;;;;;;;;21.44;41.95;100471.03;1088400;54;19922;-82
2022/05/21 09:58:43;;;;;;;;;;;;;;;21.28;42.03;100473.06;1088379;54;19961;-82
2022/05/21 09:59:59;;;;;;;;;;;;;;;21.29;42.42;100476.66;1089140;46;19969;-80
2022/05/21 10:01:03;;;;;;;;;;;;;;;21.84;41.89;100471.09;1088345;54;19934;-82
2022/05/21 10:02:19;;;;;;;;;;;;;;;22.05;41.38;100464.59;1088359;54;19943;-83
2022/05/21 10:03:35;;;;;;;;;;;;;;;22.11;41.19;100468.34;1088368;54;19926;-83
2022/05/21 10:04:42;;;;;;;;;;;;;;;21.97;40.74;100467.53;1088318;54;20629;-82
2022/05/21 10:05:46;;;;;;;;;;;;;;;21.47;40.41;100468.72;1088212;54;19927;-81
2022/05/21 10:06:54;;;;;;;;;;;;;;;21.22;40.47;100451.28;1088230;54;19951;-83
2022/05/21 10:12:01;;;;;;;;;;;;;;;21.08;41.39;100456.72;1088183;54;20582;-81
2022/05/21 10:13:04;;;;;;;;;;;;;;;20.94;41.57;100466.69;1088282;54;20617;-79
2022/05/21 10:14:10;;;;;;;;;;;;;;;20.74;41.92;100477.47;1088252;54;20010;-79
2022/05/21 10:15:16;;;;;;;;;;;;;;;20.72;41.53;100469.50;1088216;54;19947;-81
2022/05/21 10:16:27;;;;;;;;;;;;;;;20.72;41.99;100457.81;1088293;54;19946;-80
2022/05/21 10:17:34;;;;;;;;;;;;;;;20.95;41.19;100464.81;1088292;54;19938;-80
2022/05/21 10:18:39;;;;;;;;;;;;;;;21.24;41.03;100460.09;1088197;54;19938;-79
2022/05/21 10:19:45;;;;;;;;;;;;;;;21.22;40.45;100464.88;1088223;54;19939;-81
2022/05/21 10:20:48;;;;;;;;;;;;;;;21.32;40.06;100458.03;1088234;54;19961;-80
2022/05/21 10:22:00;;;;;;;;;;;;;;;21.73;39.24;100472.56;1089991;39;20632;-81
2022/05/21 10:23:09;;;;;;;;;;;;;;;22.03;38.75;100457.69;1088216;54;19950;-78
2022/05/21 10:24:16;;;;;;;;;;;;;;;22.33;38.27;100452.63;1088194;54;19977;-81
2022/05/21 10:25:21;;;;;;;;;;;;;;;21.94;39.25;100451.63;1087813;54;19989;-82
2022/05/21 10:26:31;;;;;;;;;;;;;;;21.59;39.34;100452.66;1087895;54;19942;-80
2022/05/21 10:27:49;;;;;;;;;;;;;;;22.08;39.14;100449.72;1087787;54;20017;-81
2022/05/21 10:28:56;;;;;;;;;;;;;;;22.09;39.63;100451.41;1089757;46;19962;-78
2022/05/21 10:30:13;;;;;;;;;;;;;;;22.15;39.83;100456.00;1087929;54;20002;-81
2022/05/21 10:31:24;;;;;;;;;;;;;;;22.32;39.60;100450.09;1087725;54;19950;-78
2022/05/21 10:32:34;;;;;;;;;;;;;;;22.08;40.10;100457.91;1087984;47;19942;-79
2022/05/21 10:33:43;;;;;;;;;;;;;;;21.86;40.15;100458.13;1087818;54;19935;-80
2022/05/21 10:34:52;;;;;;;;;;;;;;;21.55;40.87;100459.53;1088062;54;19994;-80
2022/05/21 10:35:58;;;;;;;;;;;;;;;21.76;39.85;100452.25;1088236;54;19942;-81
2022/05/21 10:37:09;;;;;;;;;;;;;;;21.57;40.84;100457.44;1088168;54;19935;-83
2022/05/21 10:38:20;;;;;;;;;;;;;;;21.06;41.37;100452.53;1088178;54;19943;-78
2022/05/21 10:39:38;;;;;;;;;;;;;;;21.09;41.25;100457.53;1089043;46;19969;-78
2022/05/21 10:40:47;;;;;;;;;;;;;;;21.25;41.11;100450.91;1087864;54;19951;-80
2022/05/21 10:42:02;;;;;;;;;;;;;;;21.47;40.70;100452.41;1087933;54;19994;-80
2022/05/21 10:43:21;;;;;;;;;;;;;;;21.56;39.80;100447.59;1087931;54;19938;-80
2022/05/21 10:44:35;;;;;;;;;;;;;;;21.67;39.78;100435.31;1087915;54;19946;-81
2022/05/21 10:45:40;;;;;;;;;;;;;;;21.63;39.32;100440.31;1087406;54;19947;-79
2022/05/21 10:46:51;;;;;;;;;;;;;;;21.62;40.06;100441.38;1087765;54;19942;-80
2022/05/21 10:48:10;;;;;;;;;;;;;;;21.53;40.35;100452.63;1088015;54;19942;-80
2022/05/21 10:49:26;;;;;;;;;;;;;;;21.61;38.98;100445.16;1087966;54;19943;-77
2022/05/21 10:50:31;;;;;;;;;;;;;;;21.40;40.03;100445.28;1087904;54;19955;-79
2022/05/21 10:51:33;;;;;;;;;;;;;;;21.56;39.69;100444.06;1087883;54;19990;-81
2022/05/21 10:52:46;;;;;;;;;;;;;;;21.51;39.90;100444.69;1092776;31;20673;-78
2022/05/21 10:53:54;;;;;;;;;;;;;;;21.39;40.72;100441.75;1087907;54;19923;-78
2022/05/21 10:55:04;;;;;;;;;;;;;;;21.44;40.37;100439.22;1087927;54;19943;-81
2022/05/21 10:56:09;;;;;;;;;;;;;;;21.45;40.37;100432.75;1087880;54;19942;-80
2022/05/21 10:57:24;;;;;;;;;;;;;;;21.73;39.93;100420.00;1087941;54;19994;-82
2022/05/21 10:58:31;;;;;;;;;;;;;;;21.51;40.39;100436.53;1091407;39;20493;-82
2022/05/21 11:00:02;;;;;;;;;;;;;;;21.25;40.68;100435.44;1087779;54;19943;-81
2022/05/21 11:01:14;;;;;;;;;;;;;;;21.02;41.84;100436.63;1087723;54;19950;-80
2022/05/21 11:02:39;;;;;;;;;;;;;;;21.40;41.21;100435.22;1088480;47;20710;-82
2022/05/21 11:03:47;;;;;;;;;;;;;;;21.37;41.65;100445.69;1088775;39;20569;-79
2022/05/21 11:05:06;;;;;;;;;;;;;;;21.16;41.24;100442.13;1087761;54;20019;-81
2022/05/21 11:06:20;;;;;;;;;;;;;;;21.33;41.42;100437.09;1089885;47;20701;-79
2022/05/21 11:07:33;;;;;;;;;;;;;;;21.33;40.95;100443.41;1087906;54;19945;-81
2022/05/21 11:08:39;;;;;;;;;;;;;;;21.43;41.22;100436.72;1087909;54;20029;-79
2022/05/21 11:09:45;;;;;;;;;;;;;;;21.42;40.70;100435.03;1088176;54;19958;-82
2022/05/21 11:10:53;;;;;;;;;;;;;;;21.19;41.09;100428.09;1087926;54;19945;-80
2022/05/21 11:12:00;;;;;;;;;;;;;;;21.24;41.13;100428.31;1087906;54;19953;-79
2022/05/21 11:14:08;;;;;;;;;;;;;;;20.96;41.30;100426.59;1087519;54;19939;-81
2022/05/21 11:15:14;;;;;;;;;;;;;;;20.95;41.93;100430.34;1088263;54;19926;-81
2022/05/21 11:16:20;;;;;;;;;;;;;;;20.92;42.04;100417.16;1088148;54;19942;-81
2022/05/21 11:17:33;;;;;;;;;;;;;;;21.02;41.73;100424.91;1088170;54;19949;-80
2022/05/21 11:18:40;;;;;;;;;;;;;;;20.84;42.01;100428.22;1087799;54;19933;-85
2022/05/21 11:19:44;;;;;;;;;;;;;;;20.98;41.59;100424.47;1088150;54;19946;-80
2022/05/21 11:20:50;;;;;;;;;;;;;;;21.12;41.35;100419.09;1088236;54;19938;-77
2022/05/21 11:23:01;;;;;;;;;;;;;;;21.16;41.11;100414.94;1088251;54;19927;-84
2022/05/21 11:24:05;;;;;;;;;;;;;;;21.28;41.09;100421.41;1088169;54;19927;-80
2022/05/21 11:25:14;;;;;;;;;;;;;;;21.29;41.20;100425.00;1088176;54;20696;-77
2022/05/21 11:26:23;;;;;;;;;;;;;;;21.06;40.86;100418.03;1088218;54;19950;-79
2022/05/21 11:27:27;;;;;;;;;;;;;;;21.00;40.63;100419.69;1088249;54;19950;-81
2022/05/21 11:28:36;;;;;;;;;;;;;;;21.02;40.24;100414.88;1088247;54;19949;-83
2022/05/21 11:29:43;;;;;;;;;;;;;;;20.99;39.40;100414.47;1088291;54;19951;-77
2022/05/21 11:37:39;;;;;;;;;;;;;;;21.85;39.57;100414.78;1088176;54;19974;-82
2022/05/21 11:38:44;;;;;;;;;;;;;;;21.57;39.86;100411.19;1088182;54;19949;-81
2022/05/21 11:39:45;;;;;;;;;;;;;;;21.47;39.84;100417.06;1088170;54;19927;-82
2022/05/21 11:45:29;;;;;;;;;;;;;;;21.13;40.59;100404.47;1088161;54;19987;-82
2022/05/21 11:46:35;;;;;;;;;;;;;;;21.19;41.24;100409.06;1088154;54;19966;-81
2022/05/21 11:47:52;;;;;;;;;;;;;;;21.36;40.38;100406.78;1088113;54;19942;-78
2022/05/21 11:48:56;;;;;;;;;;;;;;;21.49;40.36;100403.25;1088640;39;20187;-81
2022/05/21 11:50:11;;;;;;;;;;;;;;;21.24;40.45;100411.16;1088942;46;19942;-81
2022/05/21 11:51:28;;;;;;;;;;;;;;;21.26;40.23;100415.34;1088167;54;19950;-82
2022/05/21 11:52:44;;;;;;;;;;;;;;;21.09;39.78;100404.03;1088231;54;19966;-81
2022/05/21 11:53:48;;;;;;;;;;;;;;;21.26;39.69;100409.91;1088377;54;19995;-76
2022/05/21 11:56:13;;;;;;;;;;;;;;;21.12;40.13;100408.22;1088433;54;19945;-80
2022/05/21 11:57:29;;;;;;;;;;;;;;;21.29;40.04;100404.06;1088659;54;19927;-81
2022/05/21 11:58:48;;;;;;;;;;;;;;;21.26;40.05;100406.38;1088656;54;19923;-79
2022/05/21 12:00:55;;;;;;;;;;;;;;;21.75;39.20;100397.00;1088377;54;19927;-80
2022/05/21 12:02:09;;;;;;;;;;;;;;;21.42;39.91;100391.53;1088418;54;19938;-82
2022/05/21 12:03:14;;;;;;;;;;;;;;;21.37;39.84;100399.47;1088525;54;20605;-79
2022/05/21 12:04:47;;;;;;;;;;;;;;;21.60;39.78;100394.50;1091999;39;20523;-80
2022/05/21 12:05:53;;;;;;;;;;;;;;;21.45;39.62;100396.53;1088488;54;19953;-80
2022/05/21 12:06:57;;;;;;;;;;;;;;;21.47;39.65;100394.44;1088571;54;19949;-81
2022/05/21 12:08:10;;;;;;;;;;;;;;;21.21;39.58;100390.66;1088483;54;19966;-77
2022/05/21 12:09:25;;;;;;;;;;;;;;;21.51;39.28;100395.72;1088509;54;19943;-81
2022/05/21 12:10:31;;;;;;;;;;;;;;;21.48;39.50;100390.69;1088969;46;19998;-81
2022/05/21 12:11:41;;;;;;;;;;;;;;;21.43;39.34;100391.31;1088044;54;19943;-80
2022/05/21 12:13:00;;;;;;;;;;;;;;;21.31;39.08;100390.25;1088475;54;19935;-79
2022/05/21 12:14:04;;;;;;;;;;;;;;;21.58;38.38;100391.16;1088350;54;19942;-81
2022/05/21 12:17:37;;;;;;;;;;;;;;;21.66;38.43;100396.38;1088378;54;19969;-78
2022/05/21 12:18:40;;;;;;;;;;;;;;;21.62;38.44;100389.69;1088455;54;19942;-81
2022/05/21 12:20:02;;;;;;;;;;;;;;;21.72;38.27;100385.72;1088284;54;19985;-78
2022/05/21 12:21:12;;;;;;;;;;;;;;;21.57;38.50;100388.63;1088507;46;19950;-78
2022/05/21 12:22:32;;;;;;;;;;;;;;;21.86;37.86;100387.38;1089006;46;19949;-77
2022/05/21 12:23:51;;;;;;;;;;;;;;;21.95;38.19;100385.28;1090837;46;19939;-78
2022/05/21 12:24:52;;;;;;;;;;;;;;;21.90;38.53;100391.34;1088068;54;19939;-80
2022/05/21 12:25:57;;;;;;;;;;;;;;;21.96;38.21;100385.03;1088026;54;19949;-81
2022/05/21 12:27:01;;;;;;;;;;;;;;;21.95;38.49;100386.09;1087719;54;20836;-77
2022/05/21 12:28:05;;;;;;;;;;;;;;;21.80;38.66;100382.78;1087923;54;19943;-78
2022/05/21 12:29:17;;;;;;;;;;;;;;;21.75;38.78;100388.84;1088347;54;20480;-77
2022/05/21 12:30:24;;;;;;;;;;;;;;;22.04;38.77;100388.59;1092049;39;20518;-76
2022/05/21 12:31:29;;;;;;;;;;;;;;;21.78;38.90;100382.97;1088316;54;19957;-79
2022/05/21 12:32:32;;;;;;;;;;;;;;;21.76;39.07;100389.66;1088847;46;19958;-79
2022/05/21 12:33:40;;;;;;;;;;;;;;;21.74;39.14;100381.72;1089424;46;19949;-79
2022/05/21 12:34:58;;;;;;;;;;;;;;;21.67;39.44;100378.19;1088451;54;19942;-80
2022/05/21 12:36:08;;;;;;;;;;;;;;;21.78;39.58;100373.97;1088390;54;19927;-79
2022/05/21 12:37:19;;;;;;;;;;;;;;;21.99;39.03;100380.25;1088254;54;19950;-77
2022/05/21 12:38:26;;;;;;;;;;;;;;;22.09;38.94;100369.75;1088406;54;19942;-82
2022/05/21 12:39:33;;;;;;;;;;;;;;;22.11;38.33;100373.06;1090574;46;19943;-78
2022/05/21 12:40:37;;;;;;;;;;;;;;;21.85;38.37;100376.69;1088453;54;20434;-79
2022/05/21 12:41:43;;;;;;;;;;;;;;;22.04;38.30;100374.97;1088344;54;19950;-78
2022/05/21 12:42:47;;;;;;;;;;;;;;;22.21;38.27;100378.09;1088465;54;19962;-80
2022/05/21 12:43:52;;;;;;;;;;;;;;;22.15;38.04;100374.34;1088092;54;19943;-80
2022/05/21 12:44:53;;;;;;;;;;;;;;;22.03;38.16;100376.88;1087849;54;19951;-78
2022/05/21 12:45:57;;;;;;;;;;;;;;;21.99;38.32;100374.78;1088439;54;19949;-84
2022/05/21 12:46:58;;;;;;;;;;;;;;;22.14;38.39;100364.50;1088313;54;19942;-78
2022/05/21 12:48:08;;;;;;;;;;;;;;;22.25;37.17;100358.38;1088363;54;19950;-77
2022/05/21 12:49:10;;;;;;;;;;;;;;;22.41;37.60;100361.69;1088419;54;19926;-82
2022/05/21 12:50:16;;;;;;;;;;;;;;;22.33;37.43;100356.47;1088402;54;19942;-79
2022/05/21 12:51:26;;;;;;;;;;;;;;;22.18;37.49;100354.84;1088298;54;19966;-80
2022/05/21 12:52:38;;;;;;;;;;;;;;;22.44;37.27;100361.28;1088332;54;20551;-80
2022/05/21 12:53:42;;;;;;;;;;;;;;;22.52;37.35;100347.41;1088178;54;19966;-78
2022/05/21 12:54:46;;;;;;;;;;;;;;;22.56;37.29;100348.66;1088298;54;20563;-80
2022/05/21 12:55:56;;;;;;;;;;;;;;;22.49;37.56;100347.84;1088884;46;19958;-78
2022/05/21 12:57:12;;;;;;;;;;;;;;;22.47;37.75;100354.56;1089005;46;19938;-79
2022/05/21 12:58:20;;;;;;;;;;;;;;;22.34;37.74;100345.34;1088087;54;19953;-77
2022/05/21 12:59:22;;;;;;;;;;;;;;;22.31;38.26;100355.84;1088342;54;20627;-79
2022/05/21 13:00:29;;;;;;;;;;;;;;;22.29;38.03;100348.72;1087933;54;19942;-78
2022/05/21 13:01:31;;;;;;;;;;;;;;;22.26;37.75;100349.16;1088029;54;19943;-78
2022/05/21 13:02:42;;;;;;;;;;;;;;;22.52;37.61;100347.41;1088338;54;19998;-80
2022/05/21 13:03:43;;;;;;;;;;;;;;;22.56;37.29;100348.66;1088263;54;19942;-76
2022/05/21 13:04:48;;;;;;;;;;;;;;;22.50;37.11;100354.97;1088174;54;19927;-79
2022/05/21 13:05:51;;;;;;;;;;;;;;;22.35;37.34;100347.03;1088085;54;20069;-79
2022/05/21 13:06:56;;;;;;;;;;;;;;;22.22;37.62;100344.38;1089368;39;20618;-79
2022/05/21 13:08:06;;;;;;;;;;;;;;;22.37;37.63;100349.56;1088431;54;19938;-79
2022/05/21 13:09:15;;;;;;;;;;;;;;;22.42;37.34;100347.03;1088393;54;19994;-79
2022/05/21 13:10:18;;;;;;;;;;;;;;;22.42;37.12;100347.03;1088362;54;19926;-78
2022/05/21 13:11:24;;;;;;;;;;;;;;;22.30;37.36;100349.56;1088281;54;20042;-78
2022/05/21 13:12:29;;;;;;;;;;;;;;;22.32;37.58;100350.19;1088266;54;19966;-82
2022/05/21 13:13:35;;;;;;;;;;;;;;;22.15;37.29;100346.28;1089523;46;19927;-79
2022/05/21 13:14:37;;;;;;;;;;;;;;;22.06;37.24;100345.66;1089543;46;19938;-77
2022/05/21 13:15:42;;;;;;;;;;;;;;;22.15;36.80;100344.38;1088338;54;19927;-78
2022/05/21 13:16:47;;;;;;;;;;;;;;;22.35;37.15;100338.84;1087805;54;20019;-78
2022/05/21 13:17:57;;;;;;;;;;;;;;;22.52;36.93;100346.59;1087952;54;19949;-75
2022/05/21 13:19:13;;;;;;;;;;;;;;;22.65;36.83;100332.06;1088369;54;19946;-80
2022/05/21 13:20:19;;;;;;;;;;;;;;;22.75;36.29;100335.16;1090944;46;19943;-76
2022/05/21 13:21:28;;;;;;;;;;;;;;;22.62;36.59;100327.03;1088333;54;19934;-79
2022/05/21 13:22:37;;;;;;;;;;;;;;;22.59;36.41;100331.88;1088251;54;19970;-79
2022/05/21 13:23:55;;;;;;;;;;;;;;;22.50;36.16;100330.44;1088312;54;19944;-78
2022/05/21 13:25:01;;;;;;;;;;;;;;;22.57;36.06;100331.28;1088379;54;19927;-82
2022/05/21 13:26:05;;;;;;;;;;;;;;;22.56;35.85;100326.88;1088240;54;19973;-79
2022/05/21 13:27:11;;;;;;;;;;;;;;;22.76;35.89;100325.94;1088375;54;19927;-83
2022/05/21 13:28:15;;;;;;;;;;;;;;;22.90;35.63;100322.06;1088446;54;19934;-83
2022/05/21 13:29:20;;;;;;;;;;;;;;;23.00;35.72;100323.47;1088369;54;19934;-80
2022/05/21 13:30:23;;;;;;;;;;;;;;;23.07;34.94;100321.50;1092854;46;19939;-80
2022/05/21 13:31:27;;;;;;;;;;;;;;;23.04;35.66;100320.06;1088131;54;19958;-80
2022/05/21 13:32:32;;;;;;;;;;;;;;;23.16;35.53;100311.19;1088451;54;20535;-79
2022/05/21 13:33:37;;;;;;;;;;;;;;;23.03;34.83;100318.41;1087980;54;19943;-78
2022/05/21 13:34:38;;;;;;;;;;;;;;;23.07;35.17;100321.50;1088103;54;19942;-81
2022/05/21 13:41:05;;;;;;;;;;;;;;;22.63;36.08;100315.91;1088404;54;19942;-86
2022/05/21 13:42:13;;;;;;;;;;;;;;;22.87;35.93;100316.22;1088430;54;20573;-86
2022/05/21 13:43:14;;;;;;;;;;;;;;;23.01;35.97;100312.31;1088380;54;20598;-82
2022/05/21 13:44:24;;;;;;;;;;;;;;;22.95;36.23;100315.94;1088428;54;19927;-86
2022/05/21 13:45:26;;;;;;;;;;;;;;;23.01;36.31;100322.41;1088409;54;20725;-83
2022/05/21 13:46:31;;;;;;;;;;;;;;;22.86;35.63;100315.34;1088504;54;20523;-87
2022/05/21 13:48:42;;;;;;;;;;;;;;;22.87;35.17;100319.75;1088083;54;19965;-85
2022/05/21 13:51:52;;;;;;;;;;;;;;;22.91;35.34;100311.97;1083621;54;19939;-83
2022/05/21 13:52:56;;;;;;;;;;;;;;;22.65;35.15;100311.09;1088360;54;19950;-85
2022/05/21 13:53:58;;;;;;;;;;;;;;;22.73;35.62;100310.00;1088110;54;19949;-86
2022/05/21 13:55:05;;;;;;;;;;;;;;;22.89;35.31;100304.03;1087944;54;19943;-85
2022/05/21 14:00:38;;;;;;;;;;;;;;;22.28;37.04;100314.41;1082301;54;19938;-84
2022/05/21 14:01:42;;;;;;;;;;;;;;;22.41;36.83;100307.22;1088532;54;19950;-88
2022/05/21 14:05:57;;;;;;;;;;;;;;;22.27;36.52;100296.38;1098061;39;20142;-88
2022/05/21 14:06:58;;;;;;;;;;;;;;;22.18;36.51;100303.13;1088310;54;19942;-84
2022/05/21 14:08:10;;;;;;;;;;;;;;;22.22;36.21;100304.34;1095482;39;20718;-85
2022/05/21 14:09:17;;;;;;;;;;;;;;;22.42;36.20;100287.13;1088430;54;19942;-88
2022/05/21 14:10:33;;;;;;;;;;;;;;;22.52;35.78;100298.38;1099769;39;20451;-85
2022/05/21 14:11:38;;;;;;;;;;;;;;;22.50;36.13;100295.03;1088553;54;20858;-85
2022/05/21 14:14:49;;;;;;;;;;;;;;;22.80;35.82;100294.44;1088511;54;19958;-86
2022/05/21 14:19:11;;;;;;;;;;;;;;;23.28;35.47;100282.19;1088195;54;19925;-88
2022/05/21 14:20:24;;;;;;;;;;;;;;;23.34;35.52;100283.16;1088152;54;19950;-85
2022/05/21 14:22:34;;;;;;;;;;;;;;;23.82;34.87;100271.53;1078599;54;19953;-86
2022/05/21 14:23:41;;;;;;;;;;;;;;;23.62;34.56;100279.09;1086518;46;20651;31
2022/05/21 14:25:48;;;;;;;;;;;;;;;23.83;34.43;100270.47;1083375;54;19947;-86
2022/05/21 14:26:54;;;;;;;;;;;;;;;24.25;33.46;100271.72;1085658;54;20649;31
2022/05/21 14:28:02;;;;;;;;;;;;;;;24.63;33.34;100265.09;1088438;54;19939;-85
2022/05/21 14:34:25;;;;;;;;;;;;;;;25.48;31.96;100243.13;1088504;54;19926;-86
2022/05/21 14:37:35;;;;;;;;;;;;;;;25.62;31.66;100247.28;1088380;54;19939;-86
2022/05/21 14:40:53;;;;;;;;;;;;;;;24.54;32.22;100248.19;1088523;54;19926;-84
2022/05/21 14:41:58;;;;;;;;;;;;;;;25.12;31.72;100243.09;1088405;54;19950;-85
2022/05/21 14:43:05;;;;;;;;;;;;;;;25.17;30.94;100240.50;1088512;54;19999;-85
2022/05/21 14:44:18;;;;;;;;;;;;;;;25.27;30.92;100242.63;1088483;54;19931;-85
2022/05/21 14:52:49;;;;;;;;;;;;;;;25.03;31.35;100237.13;1088766;54;19949;-86
2022/05/21 14:54:59;;;;;;;;;;;;;;;25.25;31.54;100236.56;1088264;54;19962;-83
2022/05/21 14:57:09;;;;;;;;;;;;;;;25.28;30.98;100241.56;1088103;54;19926;-86
2022/05/21 14:59:15;;;;;;;;;;;;;;;25.32;31.09;100225.50;1088081;54;19950;-85
2022/05/21 15:01:23;;;;;;;;;;;;;;;25.43;31.30;100215.66;1088364;54;19927;-84
2022/05/21 15:04:33;;;;;;;;;;;;;;;24.83;31.59;100212.06;1089963;39;20965;-85
2022/05/21 15:05:41;;;;;;;;;;;;;;;24.79;32.18;100216.31;1088295;54;19943;-84
2022/05/21 15:06:43;;;;;;;;;;;;;;;24.79;31.73;100214.44;1089245;39;20558;-84
2022/05/21 15:08:51;;;;;;;;;;;;;;;24.96;31.74;100214.53;1088201;54;20704;-83
2022/05/21 15:10:59;;;;;;;;;;;;;;;24.72;32.19;100222.72;1088329;54;19950;-85
2022/05/21 15:12:00;;;;;;;;;;;;;;;24.67;31.80;100211.63;1088346;54;19934;-86
2022/05/21 15:13:04;;;;;;;;;;;;;;;24.64;31.90;100214.84;1088324;54;20578;-85
2022/05/21 15:15:13;;;;;;;;;;;;;;;24.24;32.33;100215.41;1089351;39;20510;-87
2022/05/21 15:16:14;;;;;;;;;;;;;;;24.36;32.23;100210.00;1088266;54;19927;-86
2022/05/21 15:17:18;;;;;;;;;;;;;;;24.14;32.60;100216.81;1088413;54;19999;-86
2022/05/21 15:18:19;;;;;;;;;;;;;;;24.03;32.83;100206.66;1088332;54;19958;-85
2022/05/21 15:20:27;;;;;;;;;;;;;;;23.82;32.67;100208.78;1088265;54;19938;-85
2022/05/21 15:21:32;;;;;;;;;;;;;;;23.89;32.56;100197.78;1097394;39;20624;-87
2022/05/21 15:22:37;;;;;;;;;;;;;;;23.93;32.55;100203.59;1088765;46;19950;-82
2022/05/21 15:23:41;;;;;;;;;;;;;;;23.90;32.88;100193.16;1088626;54;19933;-85
2022/05/21 15:24:43;;;;;;;;;;;;;;;24.05;32.89;100200.97;1090348;39;20494;-85
2022/05/21 15:25:46;;;;;;;;;;;;;;;24.17;32.53;100198.31;1088281;54;19942;-84
2022/05/21 15:26:47;;;;;;;;;;;;;;;23.95;32.98;100196.88;1088273;54;19954;-84
2022/05/21 15:27:52;;;;;;;;;;;;;;;23.86;33.12;100200.13;1088768;39;20627;-83
2022/05/21 15:28:53;;;;;;;;;;;;;;;23.71;33.41;100203.25;1088460;54;19978;-86
2022/05/21 15:29:57;;;;;;;;;;;;;;;23.68;33.60;100201.81;1088501;54;19934;-84
2022/05/21 15:32:05;;;;;;;;;;;;;;;24.05;32.85;100201.81;1088237;54;19939;-86
2022/05/21 15:35:16;;;;;;;;;;;;;;;23.94;33.32;100197.09;1088629;54;19927;-84
2022/05/21 15:36:17;;;;;;;;;;;;;;;23.72;33.49;100203.00;1088585;54;19938;-84
2022/05/21 15:37:23;;;;;;;;;;;;;;;23.84;33.23;100190.28;1088481;54;19942;-84
2022/05/21 15:38:24;;;;;;;;;;;;;;;23.84;33.31;100194.91;1088572;54;20602;-83
2022/05/21 15:40:32;;;;;;;;;;;;;;;24.24;33.36;100191.66;1088303;54;19942;-82
2022/05/21 15:42:41;;;;;;;;;;;;;;;23.83;33.15;100193.25;1088119;54;19938;-85
2022/05/21 15:46:54;;;;;;;;;;;;;;;24.27;33.26;100190.38;1088113;54;19966;-84
2022/05/21 15:47:55;;;;;;;;;;;;;;;24.26;33.36;100183.25;1088184;54;19942;-83
2022/05/21 15:48:59;;;;;;;;;;;;;;;23.87;33.57;100175.31;1088664;54;19943;-85
2022/05/21 15:50:00;;;;;;;;;;;;;;;23.71;33.91;100179.50;1088718;54;19942;-87